Time;durP1;ratioP1;P1;durP2;ratioP2;P2;SDS_P1;SDS_P2;PMS_P1;PMS_P2;Temp;Humidity;BMP_temperature;BMP_pressure;BME280_temperature;BME280_humidity;BME280_pressure;Samples;Min_cycle;Max_cycle;Signal;HPM_P1;HPM_P2
2022/04/10 00:01:01;;;;;;;1.37;1.00;;;;;;;;;;5021114;28;20208;-68
2022/04/10 00:03:48;;;;;;;0.90;0.70;;;;;;;;;;5026274;28;20750;-68
2022/04/10 00:06:35;;;;;;;1.80;0.90;;;;;;;;;;5018498;28;20210;-67
2022/04/10 00:09:22;;;;;;;0.93;0.87;;;;;;;;;;5022118;28;20298;-68
2022/04/10 00:12:10;;;;;;;0.77;0.77;;;;;;;;;;5021361;28;20412;-68
2022/04/10 00:14:57;;;;;;;1.23;0.97;;;;;;;;;;5018389;28;20238;-67
2022/04/10 00:17:45;;;;;;;0.87;0.70;;;;;;;;;;5019426;28;20587;-68
2022/04/10 00:20:32;;;;;;;1.57;0.87;;;;;;;;;;5020663;28;20218;-68
2022/04/10 00:23:19;;;;;;;0.90;0.60;;;;;;;;;;5018588;28;20201;-68
2022/04/10 00:26:06;;;;;;;1.27;1.17;;;;;;;;;;5023084;28;20626;-67
2022/04/10 00:28:53;;;;;;;1.73;0.90;;;;;;;;;;5018965;28;20756;-68
2022/04/10 00:31:40;;;;;;;0.77;0.77;;;;;;;;;;5017303;28;20217;-67
2022/04/10 00:34:28;;;;;;;0.60;0.57;;;;;;;;;;5021670;28;20214;-68
2022/04/10 00:37:15;;;;;;;1.40;0.97;;;;;;;;;;5022831;28;20214;-67
2022/04/10 00:40:03;;;;;;;1.87;1.03;;;;;;;;;;5021297;28;20237;-67
2022/04/10 00:42:51;;;;;;;1.40;1.10;;;;;;;;;;5026212;28;20234;-67
2022/04/10 00:45:38;;;;;;;1.37;1.27;;;;;;;;;;5020967;28;20226;-67
2022/04/10 00:48:25;;;;;;;1.33;1.00;;;;;;;;;;5024901;28;20211;-68
2022/04/10 00:54:20;;;;;;;1.20;0.90;;;;;;;;;;5025608;28;20298;-68
2022/04/10 00:57:07;;;;;;;0.93;0.63;;;;;;;;;;5025659;28;20693;-68
2022/04/10 00:59:54;;;;;;;0.83;0.83;;;;;;;;;;5028269;28;20300;-68
2022/04/10 01:02:41;;;;;;;1.53;0.77;;;;;;;;;;5025701;28;20287;-70
2022/04/10 01:05:29;;;;;;;2.17;1.20;;;;;;;;;;5026165;28;20649;-70
2022/04/10 01:08:17;;;;;;;0.90;0.90;;;;;;;;;;5025926;28;20704;-69
2022/04/10 01:11:04;;;;;;;2.20;1.10;;;;;;;;;;5025966;28;20252;-70
2022/04/10 01:13:53;;;;;;;1.17;0.80;;;;;;;;;;5024499;28;20218;-70
2022/04/10 01:16:41;;;;;;;1.23;1.00;;;;;;;;;;5029874;28;20678;-70
2022/04/10 01:19:28;;;;;;;1.60;1.00;;;;;;;;;;5022924;28;20208;-70
2022/04/10 01:22:33;;;;;;;1.70;0.97;;;;;;;;;;5021952;28;20308;-70
2022/04/10 01:25:20;;;;;;;1.57;0.93;;;;;;;;;;5021649;28;20230;-70
2022/04/10 01:28:11;;;;;;;1.57;1.07;;;;;;;;;;5021849;28;20250;-70
2022/04/10 01:30:58;;;;;;;1.47;1.00;;;;;;;;;;5025391;28;20209;-70
2022/04/10 01:33:45;;;;;;;1.83;1.03;;;;;;;;;;5018792;28;20272;-70
2022/04/10 01:36:33;;;;;;;1.93;1.17;;;;;;;;;;5022828;28;20218;-70
2022/04/10 01:39:22;;;;;;;2.40;1.10;;;;;;;;;;5020490;28;20627;-69
2022/04/10 01:42:09;;;;;;;0.90;0.73;;;;;;;;;;5022321;28;20695;-70
2022/04/10 01:44:56;;;;;;;1.17;1.00;;;;;;;;;;5022493;28;20793;-70
2022/04/10 01:47:43;;;;;;;1.73;1.10;;;;;;;;;;5023628;28;20276;-70
2022/04/10 01:50:30;;;;;;;1.67;0.80;;;;;;;;;;5020943;28;20293;-70
2022/04/10 01:53:17;;;;;;;1.20;0.87;;;;;;;;;;5025454;28;20313;-70
2022/04/10 01:56:07;;;;;;;1.67;1.00;;;;;;;;;;5023346;28;20274;-70
2022/04/10 01:58:53;;;;;;;1.20;0.80;;;;;;;;;;5019042;28;20297;-70
2022/04/10 02:01:40;;;;;;;1.57;1.03;;;;;;;;;;5024321;28;20245;-70
2022/04/10 02:04:27;;;;;;;0.80;0.80;;;;;;;;;;5023581;28;20260;-70
2022/04/10 02:07:14;;;;;;;1.50;0.80;;;;;;;;;;5021913;28;20207;-70
2022/04/10 02:10:01;;;;;;;1.10;1.00;;;;;;;;;;5021099;28;20301;-70
2022/04/10 02:12:49;;;;;;;1.30;0.80;;;;;;;;;;5025853;28;20201;-70
2022/04/10 02:15:36;;;;;;;1.20;0.83;;;;;;;;;;5022724;28;20260;-70
2022/04/10 02:18:23;;;;;;;1.23;1.00;;;;;;;;;;5022582;28;20214;-70
2022/04/10 02:21:10;;;;;;;1.40;0.90;;;;;;;;;;5018829;28;20279;-70
2022/04/10 02:23:58;;;;;;;1.17;0.97;;;;;;;;;;5017176;28;20667;-70
2022/04/10 02:26:45;;;;;;;1.00;0.90;;;;;;;;;;5020378;28;20238;-70
2022/04/10 02:29:33;;;;;;;1.77;0.87;;;;;;;;;;5018615;28;20214;-70
2022/04/10 02:32:20;;;;;;;1.47;0.97;;;;;;;;;;5020925;28;20229;-70
2022/04/10 02:35:08;;;;;;;0.80;0.80;;;;;;;;;;5020336;28;20247;-70
2022/04/10 02:37:55;;;;;;;1.00;0.73;;;;;;;;;;5023219;28;20212;-70
2022/04/10 02:40:42;;;;;;;1.27;0.80;;;;;;;;;;5020535;28;20210;-70
2022/04/10 02:43:29;;;;;;;1.00;0.90;;;;;;;;;;5022912;28;20232;-70
2022/04/10 02:46:17;;;;;;;1.13;0.90;;;;;;;;;;5021017;28;20971;-70
2022/04/10 02:49:04;;;;;;;1.00;0.90;;;;;;;;;;5023751;28;20580;-69
2022/04/10 02:51:51;;;;;;;1.20;1.00;;;;;;;;;;5022660;28;20245;-70
2022/04/10 02:54:38;;;;;;;1.50;1.17;;;;;;;;;;5022200;28;20314;-70
2022/04/10 02:57:25;;;;;;;0.80;0.80;;;;;;;;;;5021386;28;20345;-70
2022/04/10 03:00:14;;;;;;;0.67;0.67;;;;;;;;;;5023115;28;20210;-70
2022/04/10 03:03:02;;;;;;;1.63;0.90;;;;;;;;;;5022115;28;20674;-70
2022/04/10 03:05:49;;;;;;;1.07;0.83;;;;;;;;;;5020555;28;20636;-70
2022/04/10 03:08:36;;;;;;;1.20;0.87;;;;;;;;;;5025637;28;20681;-70
2022/04/10 03:11:24;;;;;;;1.60;1.10;;;;;;;;;;5020801;28;20732;-70
2022/04/10 03:14:11;;;;;;;0.70;0.70;;;;;;;;;;5020167;28;20676;-71
2022/04/10 03:16:58;;;;;;;2.47;1.00;;;;;;;;;;5020677;28;20336;-70
2022/04/10 03:19:46;;;;;;;0.87;0.80;;;;;;;;;;5014213;28;20247;-70
2022/04/10 03:22:33;;;;;;;1.30;1.20;;;;;;;;;;5022596;28;20218;-70
2022/04/10 03:25:20;;;;;;;0.80;0.80;;;;;;;;;;5019614;28;20317;-69
2022/04/10 03:28:07;;;;;;;1.03;0.93;;;;;;;;;;5019681;28;20288;-70
2022/04/10 03:30:54;;;;;;;1.27;0.77;;;;;;;;;;5022944;28;20217;-70
2022/04/10 03:33:41;;;;;;;1.63;1.00;;;;;;;;;;5017380;28;20227;-70
2022/04/10 03:36:29;;;;;;;1.07;0.97;;;;;;;;;;5025326;28;20214;-70
2022/04/10 03:39:16;;;;;;;1.30;0.93;;;;;;;;;;5018554;28;20328;-70
2022/04/10 03:42:03;;;;;;;1.53;1.30;;;;;;;;;;5018946;28;20683;-70
2022/04/10 03:44:50;;;;;;;1.93;1.00;;;;;;;;;;5017775;28;20312;-70
2022/04/10 03:47:37;;;;;;;0.77;0.77;;;;;;;;;;5022275;28;20211;-71
2022/04/10 03:50:25;;;;;;;1.17;0.70;;;;;;;;;;5019772;28;20246;-70
2022/04/10 03:53:14;;;;;;;0.87;0.87;;;;;;;;;;5021635;28;20311;-70
2022/04/10 03:56:01;;;;;;;1.63;0.93;;;;;;;;;;5022928;28;20207;-70
2022/04/10 03:58:48;;;;;;;1.70;0.97;;;;;;;;;;5022141;28;20292;-70
2022/04/10 04:01:35;;;;;;;1.90;1.03;;;;;;;;;;5018089;28;20347;-70
2022/04/10 04:04:22;;;;;;;0.97;0.80;;;;;;;;;;5026043;28;20670;-70
2022/04/10 04:07:09;;;;;;;1.90;1.03;;;;;;;;;;5018933;28;20224;-70
2022/04/10 04:09:57;;;;;;;1.30;1.03;;;;;;;;;;5017372;28;20716;-70
2022/04/10 04:12:44;;;;;;;1.17;1.00;;;;;;;;;;5022107;28;20299;-70
2022/04/10 04:15:31;;;;;;;1.37;1.00;;;;;;;;;;5024419;28;20227;-70
2022/04/10 04:18:18;;;;;;;1.93;1.10;;;;;;;;;;5017995;28;20215;-70
2022/04/10 04:21:05;;;;;;;1.03;0.90;;;;;;;;;;5024552;28;20294;-70
2022/04/10 04:23:52;;;;;;;1.70;1.17;;;;;;;;;;5016774;28;20565;-70
2022/04/10 04:26:40;;;;;;;1.70;1.13;;;;;;;;;;5018705;28;20728;-70
2022/04/10 04:29:27;;;;;;;1.37;1.10;;;;;;;;;;5022392;28;20218;-70
2022/04/10 04:32:14;;;;;;;1.30;0.90;;;;;;;;;;5014536;28;20213;-70
2022/04/10 04:35:01;;;;;;;2.60;1.07;;;;;;;;;;5020143;28;20201;-70
2022/04/10 04:37:47;;;;;;;1.10;0.97;;;;;;;;;;5017995;28;20293;-69
2022/04/10 04:40:34;;;;;;;1.07;0.93;;;;;;;;;;5018457;28;20296;-70
2022/04/10 04:43:23;;;;;;;1.63;0.70;;;;;;;;;;5021814;28;20251;-70
2022/04/10 04:46:10;;;;;;;0.90;0.80;;;;;;;;;;5021653;28;20327;-70
2022/04/10 04:48:57;;;;;;;1.57;1.10;;;;;;;;;;5019273;28;20333;-70
2022/04/10 04:51:44;;;;;;;0.87;0.73;;;;;;;;;;5021497;28;20245;-70
2022/04/10 04:54:30;;;;;;;1.40;0.90;;;;;;;;;;5021372;28;20220;-70
2022/04/10 04:57:17;;;;;;;1.43;1.20;;;;;;;;;;5018231;28;20721;-70
2022/04/10 05:00:07;;;;;;;0.77;0.70;;;;;;;;;;5022759;28;20302;-70
2022/04/10 05:02:54;;;;;;;1.17;1.00;;;;;;;;;;5022051;28;20218;-70
2022/04/10 05:05:41;;;;;;;1.10;1.00;;;;;;;;;;5022603;28;20647;-70
2022/04/10 05:08:28;;;;;;;1.50;0.97;;;;;;;;;;5018816;28;20679;-70
2022/04/10 05:11:15;;;;;;;1.00;0.90;;;;;;;;;;5020300;28;20284;-70
2022/04/10 05:14:03;;;;;;;1.13;1.00;;;;;;;;;;5019190;28;20706;-70
2022/04/10 05:16:52;;;;;;;1.23;0.97;;;;;;;;;;5023981;28;20654;-70
2022/04/10 05:19:39;;;;;;;1.70;0.87;;;;;;;;;;5017842;28;20290;-70
2022/04/10 05:22:26;;;;;;;1.20;1.10;;;;;;;;;;5017429;28;20219;-70
2022/04/10 05:25:13;;;;;;;1.40;1.00;;;;;;;;;;5020996;28;20729;-70
2022/04/10 05:27:59;;;;;;;1.50;1.33;;;;;;;;;;5021277;28;20243;-70
2022/04/10 05:30:47;;;;;;;1.13;1.03;;;;;;;;;;5016062;28;20294;-70
2022/04/10 05:33:36;;;;;;;1.40;0.97;;;;;;;;;;5028069;28;20274;-70
2022/04/10 05:36:23;;;;;;;2.37;1.20;;;;;;;;;;5021543;28;20285;-70
2022/04/10 05:39:10;;;;;;;0.83;0.83;;;;;;;;;;5021354;28;20202;-70
2022/04/10 05:41:57;;;;;;;1.00;0.90;;;;;;;;;;5023829;28;20313;-70
2022/04/10 05:44:44;;;;;;;1.20;1.10;;;;;;;;;;5023861;28;20237;-70
2022/04/10 05:47:31;;;;;;;1.43;1.10;;;;;;;;;;5024099;28;20715;-70
2022/04/10 05:50:19;;;;;;;1.17;1.07;;;;;;;;;;5024464;28;21136;-69
2022/04/10 05:53:06;;;;;;;1.10;1.00;;;;;;;;;;5024093;28;20743;-69
2022/04/10 05:55:53;;;;;;;1.13;1.03;;;;;;;;;;5026061;28;20290;-70
2022/04/10 05:58:40;;;;;;;1.00;0.90;;;;;;;;;;5024895;28;20237;-70
2022/04/10 06:01:27;;;;;;;1.17;1.03;;;;;;;;;;5022826;28;20303;-70
2022/04/10 06:04:14;;;;;;;1.87;1.30;;;;;;;;;;5022295;28;20373;-70
2022/04/10 06:07:02;;;;;;;1.97;1.27;;;;;;;;;;5026190;28;20309;-70
2022/04/10 06:09:49;;;;;;;1.60;1.00;;;;;;;;;;5021967;28;20593;-70
2022/04/10 06:12:36;;;;;;;1.13;0.90;;;;;;;;;;5023811;28;20218;-70
2022/04/10 06:15:23;;;;;;;1.40;0.90;;;;;;;;;;5023454;28;20682;-70
2022/04/10 06:18:11;;;;;;;1.40;1.30;;;;;;;;;;5020669;28;20623;-70
2022/04/10 06:20:58;;;;;;;1.10;1.00;;;;;;;;;;5022669;28;20210;-70
2022/04/10 06:23:46;;;;;;;1.10;0.90;;;;;;;;;;5022232;28;20296;-70
2022/04/10 06:33:57;;;;;;;0.98;0.70;;;;;;;;;;5022910;28;20676;-70
2022/04/10 06:36:44;;;;;;;1.10;1.00;;;;;;;;;;5024173;28;20223;-71
2022/04/10 06:39:33;;;;;;;1.20;0.82;;;;;;;;;;5023442;28;20250;-69
2022/04/10 06:42:20;;;;;;;0.73;0.60;;;;;;;;;;5018624;28;20216;-69
2022/04/10 06:45:08;;;;;;;1.00;0.85;;;;;;;;;;5022441;28;20228;-68
2022/04/10 06:47:55;;;;;;;1.33;1.20;;;;;;;;;;5017436;28;20295;-67
2022/04/10 06:50:42;;;;;;;1.88;1.00;;;;;;;;;;5023316;28;20244;-67
2022/04/10 06:53:29;;;;;;;0.90;0.90;;;;;;;;;;5024269;28;20643;-70
2022/04/10 06:56:17;;;;;;;2.28;0.90;;;;;;;;;;5023924;28;20680;-70
2022/04/10 06:59:04;;;;;;;1.35;1.10;;;;;;;;;;5021982;28;20778;-69
2022/04/10 07:01:51;;;;;;;1.02;0.80;;;;;;;;;;5022409;28;20684;-69
2022/04/10 07:04:39;;;;;;;1.70;1.25;;;;;;;;;;5023788;28;20239;-69
2022/04/10 07:07:26;;;;;;;1.13;0.90;;;;;;;;;;5022950;28;20255;-69
2022/04/10 07:10:13;;;;;;;1.27;0.95;;;;;;;;;;5022091;28;20291;-66
2022/04/10 07:13:01;;;;;;;1.17;0.90;;;;;;;;;;5022737;28;20217;-67
2022/04/10 07:15:57;;;;;;;1.60;1.02;;;;;;;;;;5020081;28;20674;-67
2022/04/10 07:18:44;;;;;;;1.35;1.00;;;;;;;;;;5019938;28;20685;-66
2022/04/10 07:24:31;;;;;;;0.90;0.70;;;;;;;;;;5012500;28;20209;-68
2022/04/10 07:27:18;;;;;;;1.08;0.88;;;;;;;;;;5021232;28;20321;-68
2022/04/10 07:30:08;;;;;;;1.58;0.68;;;;;;;;;;5021567;28;20732;-68
2022/04/10 07:32:57;;;;;;;0.90;0.90;;;;;;;;;;5019747;28;20695;-68
2022/04/10 07:35:45;;;;;;;0.63;0.63;;;;;;;;;;5021413;28;20374;-68
2022/04/10 07:38:33;;;;;;;0.93;0.60;;;;;;;;;;5020091;28;20231;-70
2022/04/10 07:41:20;;;;;;;1.73;0.90;;;;;;;;;;5021238;28;20219;-68
2022/04/10 07:44:07;;;;;;;1.15;0.90;;;;;;;;;;5020275;28;20240;-67
2022/04/10 07:50:00;;;;;;;1.23;0.80;;;;;;;;;;5022824;28;20204;-68
2022/04/10 07:52:47;;;;;;;1.33;0.82;;;;;;;;;;5024061;28;20727;-68
2022/04/10 07:55:34;;;;;;;1.15;0.90;;;;;;;;;;5019377;28;20240;-68
2022/04/10 07:58:21;;;;;;;0.85;0.60;;;;;;;;;;5020770;28;20209;-68
2022/04/10 08:01:08;;;;;;;1.00;0.70;;;;;;;;;;5021219;28;20303;-68
2022/04/10 08:03:56;;;;;;;0.93;0.85;;;;;;;;;;5019470;28;20335;-69
2022/04/10 08:06:43;;;;;;;0.73;0.70;;;;;;;;;;5022468;28;20231;-69
2022/04/10 08:09:31;;;;;;;0.70;0.70;;;;;;;;;;5021441;28;20208;-69
2022/04/10 08:12:18;;;;;;;0.98;0.98;;;;;;;;;;5017701;28;20212;-68
2022/04/10 08:15:06;;;;;;;3.00;2.10;;;;;;;;;;5018813;28;20283;-67
2022/04/10 08:17:53;;;;;;;3.40;1.90;;;;;;;;;;5016511;28;20271;-67
2022/04/10 08:20:41;;;;;;;3.85;3.50;;;;;;;;;;5019332;28;20671;-68
2022/04/10 08:23:29;;;;;;;8.50;6.22;;;;;;;;;;5018390;28;20216;-68
2022/04/10 08:26:15;;;;;;;11.98;7.90;;;;;;;;;;5019651;28;20268;-68
2022/04/10 08:29:02;;;;;;;17.55;10.52;;;;;;;;;;5018391;28;20208;-68
2022/04/10 08:31:49;;;;;;;22.27;13.65;;;;;;;;;;5022275;28;20231;-68
2022/04/10 08:34:36;;;;;;;31.20;17.13;;;;;;;;;;5024267;28;20205;-68
2022/04/10 08:37:25;;;;;;;28.63;17.33;;;;;;;;;;5022355;28;20660;-69
2022/04/10 08:40:12;;;;;;;25.35;15.85;;;;;;;;;;5018064;28;20232;-68
2022/04/10 08:43:00;;;;;;;23.30;16.08;;;;;;;;;;5021482;28;20288;-68
2022/04/10 08:45:47;;;;;;;27.83;15.73;;;;;;;;;;5024249;28;20208;-69
2022/04/10 08:48:37;;;;;;;24.92;15.77;;;;;;;;;;5022724;28;20298;-69
2022/04/10 08:51:24;;;;;;;23.75;14.00;;;;;;;;;;5022234;28;20274;-70
2022/04/10 08:54:14;;;;;;;21.45;14.45;;;;;;;;;;5023237;28;20296;-69
2022/04/10 08:57:02;;;;;;;26.58;14.75;;;;;;;;;;5022063;28;20208;-69
2022/04/10 08:59:49;;;;;;;22.10;13.85;;;;;;;;;;5021819;28;20212;-69
2022/04/10 09:02:46;;;;;;;20.42;13.30;;;;;;;;;;5019919;28;20220;-69
2022/04/10 09:05:33;;;;;;;21.08;12.13;;;;;;;;;;5021222;28;20631;-70
2022/04/10 09:08:20;;;;;;;17.00;11.30;;;;;;;;;;5022995;28;20313;-69
2022/04/10 09:11:09;;;;;;;15.48;10.68;;;;;;;;;;5027913;28;20298;-69
2022/04/10 09:14:00;;;;;;;15.35;9.80;;;;;;;;;;5021737;28;20274;-70
2022/04/10 09:16:47;;;;;;;12.23;8.52;;;;;;;;;;5026179;28;20258;-66
2022/04/10 09:19:36;;;;;;;9.73;7.55;;;;;;;;;;5023792;28;20746;-66
2022/04/10 09:22:25;;;;;;;11.73;7.43;;;;;;;;;;5025651;28;20678;-66
2022/04/10 09:25:14;;;;;;;11.20;7.30;;;;;;;;;;5020204;28;20223;-66
2022/04/10 09:28:02;;;;;;;8.93;5.93;;;;;;;;;;5021820;28;20242;-66
2022/04/10 09:30:49;;;;;;;10.02;5.90;;;;;;;;;;5022740;28;20247;-66
2022/04/10 09:33:49;;;;;;;5.80;4.97;;;;;;;;;;5021501;28;20303;-66
2022/04/10 09:36:39;;;;;;;6.68;4.80;;;;;;;;;;5021996;28;20218;-66
2022/04/10 09:39:32;;;;;;;5.07;4.55;;;;;;;;;;5024854;28;20214;-66
2022/04/10 09:42:19;;;;;;;5.90;4.47;;;;;;;;;;5025724;28;20286;-66
2022/04/10 09:45:27;;;;;;;5.63;3.63;;;;;;;;;;5027591;28;20219;-67
2022/04/10 09:48:21;;;;;;;4.78;3.50;;;;;;;;;;5023794;28;20296;-66
2022/04/10 09:51:11;;;;;;;4.57;3.13;;;;;;;;;;5022270;28;20327;-67
2022/04/10 09:54:03;;;;;;;3.47;3.00;;;;;;;;;;5024183;28;20377;-66
2022/04/10 09:56:51;;;;;;;3.25;2.90;;;;;;;;;;5024041;28;20201;-66
2022/04/10 09:59:42;;;;;;;2.97;2.63;;;;;;;;;;5021149;28;20251;-66
2022/04/10 10:02:31;;;;;;;2.95;2.65;;;;;;;;;;5026012;28;20665;-67
2022/04/10 10:05:18;;;;;;;3.90;3.00;;;;;;;;;;5026780;28;20211;-67
2022/04/10 10:08:07;;;;;;;2.63;2.43;;;;;;;;;;5024772;28;20310;-67
2022/04/10 10:10:55;;;;;;;2.72;2.30;;;;;;;;;;5022571;28;20220;-66
2022/04/10 10:13:42;;;;;;;2.58;2.30;;;;;;;;;;5027362;28;20288;-66
2022/04/10 10:16:29;;;;;;;2.30;2.10;;;;;;;;;;5025431;28;20241;-67
2022/04/10 10:19:18;;;;;;;2.30;2.08;;;;;;;;;;5020418;28;20210;-67
2022/04/10 10:22:07;;;;;;;2.63;2.05;;;;;;;;;;5023738;28;20677;-67
2022/04/10 10:24:59;;;;;;;2.00;1.63;;;;;;;;;;5029304;28;20214;-67
2022/04/10 10:28:12;;;;;;;2.10;1.85;;;;;;;;;;5023707;28;20239;-66
2022/04/10 10:31:18;;;;;;;1.93;1.73;;;;;;;;;;5022742;28;20359;-66
2022/04/10 10:34:07;;;;;;;1.90;1.77;;;;;;;;;;5022622;28;20696;-66
2022/04/10 10:36:57;;;;;;;1.60;1.50;;;;;;;;;;5021701;28;20202;-66
2022/04/10 10:39:50;;;;;;;1.87;1.67;;;;;;;;;;5022971;28;20224;-66
2022/04/10 10:42:39;;;;;;;1.60;1.50;;;;;;;;;;5022568;28;20735;-65
2022/04/10 10:45:37;;;;;;;1.40;1.30;;;;;;;;;;5024472;28;20221;-65
2022/04/10 10:48:25;;;;;;;1.30;1.20;;;;;;;;;;5021232;28;20237;-65
2022/04/10 10:51:42;;;;;;;1.47;1.30;;;;;;;;;;5023067;28;20239;-65
2022/04/10 10:54:35;;;;;;;1.67;1.30;;;;;;;;;;5020395;28;20215;-66
2022/04/10 10:57:41;;;;;;;1.40;1.30;;;;;;;;;;5024242;28;20264;-66
2022/04/10 11:00:37;;;;;;;1.60;1.40;;;;;;;;;;5021368;28;20214;-66
2022/04/10 11:03:24;;;;;;;1.23;1.10;;;;;;;;;;5018567;28;20268;-66
2022/04/10 11:06:15;;;;;;;1.20;1.10;;;;;;;;;;5013547;28;20257;-66
2022/04/10 11:09:21;;;;;;;1.30;1.20;;;;;;;;;;5022596;28;20316;-65
2022/04/10 11:12:14;;;;;;;2.10;1.20;;;;;;;;;;5019973;28;20205;-66
2022/04/10 11:15:12;;;;;;;1.57;1.07;;;;;;;;;;5024146;28;20206;-65
2022/04/10 11:18:29;;;;;;;1.20;0.90;;;;;;;;;;5023109;28;20747;-66
2022/04/10 11:21:20;;;;;;;1.37;0.97;;;;;;;;;;5018761;28;20695;-67
2022/04/10 11:24:09;;;;;;;1.27;1.00;;;;;;;;;;5020286;28;20286;-67
2022/04/10 11:26:56;;;;;;;1.20;1.07;;;;;;;;;;5016295;28;20237;-67
2022/04/10 11:30:02;;;;;;;1.27;1.17;;;;;;;;;;5022623;28;20295;-67
2022/04/10 11:32:51;;;;;;;1.30;1.07;;;;;;;;;;5020522;28;20610;-67
2022/04/10 11:35:40;;;;;;;1.30;0.73;;;;;;;;;;5021360;28;20268;-67
2022/04/10 11:38:27;;;;;;;1.27;0.70;;;;;;;;;;5020022;28;20674;-66
2022/04/10 11:41:14;;;;;;;2.10;0.93;;;;;;;;;;5021524;28;20693;-66
2022/04/10 11:44:02;;;;;;;1.47;0.67;;;;;;;;;;5020485;28;20211;-67
2022/04/10 11:46:50;;;;;;;0.80;0.80;;;;;;;;;;5021383;28;20327;-67
2022/04/10 11:49:39;;;;;;;2.37;1.10;;;;;;;;;;5020217;28;20568;-67
2022/04/10 11:52:25;;;;;;;1.27;0.80;;;;;;;;;;5020603;28;20245;-67
2022/04/10 11:55:12;;;;;;;1.40;0.70;;;;;;;;;;5025244;28;20205;-67
2022/04/10 11:58:01;;;;;;;0.73;0.73;;;;;;;;;;5020646;28;20777;-67
2022/04/10 12:00:52;;;;;;;1.47;0.90;;;;;;;;;;5023420;28;20209;-67
2022/04/10 12:03:41;;;;;;;1.20;0.80;;;;;;;;;;5020149;28;20214;-66
2022/04/10 12:06:28;;;;;;;1.13;0.80;;;;;;;;;;5022699;28;20246;-66
2022/04/10 12:09:15;;;;;;;1.57;1.00;;;;;;;;;;5019674;28;20299;-66
2022/04/10 12:12:02;;;;;;;1.67;1.50;;;;;;;;;;5018545;28;20215;-65
2022/04/10 12:14:49;;;;;;;1.57;1.47;;;;;;;;;;5024093;28;20663;-66
2022/04/10 12:17:36;;;;;;;1.67;1.27;;;;;;;;;;5015573;28;20688;-65
2022/04/10 12:20:25;;;;;;;2.00;1.37;;;;;;;;;;5022102;28;20318;-65
2022/04/10 12:23:19;;;;;;;1.17;1.07;;;;;;;;;;5020779;28;20282;-66
2022/04/10 12:26:06;;;;;;;1.57;1.23;;;;;;;;;;5021607;28;20314;-65
2022/04/10 12:28:53;;;;;;;1.60;1.17;;;;;;;;;;5020262;28;20241;-65
2022/04/10 12:31:42;;;;;;;1.20;1.10;;;;;;;;;;5020524;28;20345;-65
2022/04/10 12:34:33;;;;;;;1.17;0.90;;;;;;;;;;5018941;28;20212;-66
2022/04/10 12:37:21;;;;;;;1.43;1.10;;;;;;;;;;5019368;28;20616;-66
2022/04/10 12:40:09;;;;;;;2.60;1.37;;;;;;;;;;5019049;28;20212;-65
2022/04/10 12:42:59;;;;;;;1.37;1.27;;;;;;;;;;5023843;28;20594;-65
2022/04/10 12:45:46;;;;;;;1.00;0.90;;;;;;;;;;5024886;28;20223;-65
2022/04/10 12:48:34;;;;;;;1.30;1.00;;;;;;;;;;5027215;28;20308;-65
2022/04/10 12:51:21;;;;;;;1.10;1.00;;;;;;;;;;5023548;28;20238;-65
2022/04/10 12:54:09;;;;;;;1.07;0.80;;;;;;;;;;5021653;28;20231;-65
2022/04/10 12:56:56;;;;;;;1.73;0.67;;;;;;;;;;5025970;28;20699;-65
2022/04/10 12:59:46;;;;;;;1.07;0.70;;;;;;;;;;5023358;28;20253;-66
2022/04/10 13:02:37;;;;;;;1.27;0.90;;;;;;;;;;5025290;28;20219;-66
2022/04/10 13:05:24;;;;;;;1.10;1.00;;;;;;;;;;5023569;28;20566;-65
2022/04/10 13:08:12;;;;;;;1.30;1.20;;;;;;;;;;5024733;28;20291;-65
2022/04/10 13:11:00;;;;;;;1.17;0.67;;;;;;;;;;5025723;28;20249;-65
2022/04/10 13:13:57;;;;;;;1.57;1.00;;;;;;;;;;5027130;28;20298;-65
2022/04/10 13:16:46;;;;;;;1.37;0.80;;;;;;;;;;5023531;28;20220;-65
2022/04/10 13:19:35;;;;;;;1.10;0.77;;;;;;;;;;5021023;28;20202;-66
2022/04/10 13:22:21;;;;;;;1.30;0.90;;;;;;;;;;5025179;28;20765;-66
2022/04/10 13:25:11;;;;;;;0.80;0.80;;;;;;;;;;5024398;28;20211;-66
2022/04/10 13:28:00;;;;;;;1.00;0.90;;;;;;;;;;5027131;28;20251;-66
2022/04/10 13:30:47;;;;;;;1.90;1.30;;;;;;;;;;5028157;28;20233;-66
2022/04/10 13:33:34;;;;;;;0.70;0.70;;;;;;;;;;5022049;28;20296;-66
2022/04/10 13:36:21;;;;;;;0.77;0.70;;;;;;;;;;5025732;28;20597;-66
2022/04/10 13:39:08;;;;;;;1.20;0.80;;;;;;;;;;5024235;28;20218;-66
2022/04/10 13:41:55;;;;;;;1.40;0.90;;;;;;;;;;5023563;28;20739;-66
2022/04/10 13:44:43;;;;;;;1.10;1.00;;;;;;;;;;5021929;28;20302;-66
2022/04/10 13:47:30;;;;;;;1.20;0.83;;;;;;;;;;5024319;28;20308;-66
2022/04/10 13:50:17;;;;;;;0.77;0.73;;;;;;;;;;5025400;28;20220;-66
2022/04/10 13:53:05;;;;;;;1.33;0.90;;;;;;;;;;5027410;28;20780;-66
2022/04/10 13:55:51;;;;;;;1.27;1.17;;;;;;;;;;5022488;28;20270;-66
2022/04/10 13:58:38;;;;;;;1.87;1.03;;;;;;;;;;5026777;28;20857;-66
2022/04/10 14:01:27;;;;;;;1.00;0.80;;;;;;;;;;5025468;28;20612;-66
2022/04/10 14:04:14;;;;;;;2.57;1.23;;;;;;;;;;5018865;28;20216;-66
2022/04/10 14:07:01;;;;;;;0.70;0.70;;;;;;;;;;5020625;28;20219;-66
2022/04/10 14:09:48;;;;;;;1.43;0.83;;;;;;;;;;5019819;28;20303;-66
2022/04/10 14:12:35;;;;;;;1.10;1.00;;;;;;;;;;5017528;28;20250;-66
2022/04/10 14:15:21;;;;;;;1.57;0.93;;;;;;;;;;5024149;28;20245;-66
2022/04/10 14:18:10;;;;;;;0.90;0.90;;;;;;;;;;5023466;28;20244;-66
2022/04/10 14:20:57;;;;;;;0.87;0.70;;;;;;;;;;5018224;28;20243;-66
2022/04/10 14:23:44;;;;;;;1.10;0.80;;;;;;;;;;5020775;28;20301;-66
2022/04/10 14:26:31;;;;;;;1.10;1.00;;;;;;;;;;5020387;28;20220;-69
2022/04/10 14:29:18;;;;;;;1.47;0.97;;;;;;;;;;5022672;28;20227;-66
2022/04/10 14:32:06;;;;;;;0.70;0.70;;;;;;;;;;5019373;28;20229;-66
2022/04/10 14:34:54;;;;;;;0.73;0.73;;;;;;;;;;5022156;28;20270;-66
2022/04/10 14:37:41;;;;;;;1.37;0.90;;;;;;;;;;5018294;28;20214;-66
2022/04/10 14:40:28;;;;;;;2.07;0.90;;;;;;;;;;5025628;28;20610;-66
2022/04/10 14:43:15;;;;;;;2.23;1.00;;;;;;;;;;5025634;28;20635;-66
2022/04/10 14:46:02;;;;;;;1.43;1.00;;;;;;;;;;5021201;28;20558;-66
2022/04/10 14:48:49;;;;;;;1.23;0.90;;;;;;;;;;5025500;28;20319;-66
2022/04/10 14:51:38;;;;;;;1.17;0.60;;;;;;;;;;5024136;28;20344;-66
2022/04/10 14:54:25;;;;;;;0.87;0.60;;;;;;;;;;5020752;28;20267;-66
2022/04/10 14:57:12;;;;;;;1.17;0.87;;;;;;;;;;5025431;28;20218;-66
2022/04/10 14:59:59;;;;;;;1.13;1.00;;;;;;;;;;5018758;28;20206;-66
2022/04/10 15:02:48;;;;;;;1.03;0.60;;;;;;;;;;5020605;28;20266;-66
2022/04/10 15:05:35;;;;;;;0.97;0.90;;;;;;;;;;5023748;28;20229;-66
2022/04/10 15:08:23;;;;;;;0.70;0.70;;;;;;;;;;5018860;28;20264;-66
2022/04/10 15:11:10;;;;;;;0.97;0.77;;;;;;;;;;5015322;28;20706;-67
2022/04/10 15:13:58;;;;;;;1.30;0.67;;;;;;;;;;5025587;28;20727;-67
2022/04/10 15:16:45;;;;;;;1.10;0.70;;;;;;;;;;5021492;28;20594;-66
2022/04/10 15:19:33;;;;;;;1.10;0.80;;;;;;;;;;5021278;28;20245;-66
2022/04/10 15:22:20;;;;;;;0.63;0.60;;;;;;;;;;5022688;28;20219;-66
2022/04/10 15:25:09;;;;;;;0.90;0.83;;;;;;;;;;5020333;28;20250;-66
2022/04/10 15:27:56;;;;;;;1.43;0.80;;;;;;;;;;5017869;28;20230;-66
2022/04/10 15:30:43;;;;;;;0.70;0.60;;;;;;;;;;5020255;28;20669;-66
2022/04/10 15:33:30;;;;;;;1.47;0.83;;;;;;;;;;5021993;28;20212;-66
2022/04/10 15:36:17;;;;;;;0.70;0.60;;;;;;;;;;5023303;28;20205;-66
2022/04/10 15:39:04;;;;;;;0.80;0.80;;;;;;;;;;5019397;28;20455;-66
2022/04/10 15:41:53;;;;;;;0.77;0.77;;;;;;;;;;5019727;28;20200;-66
2022/04/10 15:44:39;;;;;;;1.00;0.87;;;;;;;;;;5022070;28;20760;-66
2022/04/10 15:47:26;;;;;;;0.47;0.47;;;;;;;;;;5022256;28;20250;-66
2022/04/10 15:50:14;;;;;;;1.63;0.80;;;;;;;;;;5019781;28;20295;-66
2022/04/10 15:53:01;;;;;;;0.70;0.60;;;;;;;;;;5020883;28;20229;-67
2022/04/10 15:55:48;;;;;;;0.70;0.63;;;;;;;;;;5017715;28;20284;-66
2022/04/10 15:58:37;;;;;;;1.23;0.73;;;;;;;;;;5018636;28;20201;-67
2022/04/10 16:01:25;;;;;;;0.70;0.60;;;;;;;;;;5027008;28;20292;-67
2022/04/10 16:04:12;;;;;;;0.90;0.60;;;;;;;;;;5019215;28;20210;-67
2022/04/10 16:06:59;;;;;;;1.43;1.07;;;;;;;;;;5020649;28;20295;-66
2022/04/10 16:09:46;;;;;;;0.73;0.70;;;;;;;;;;5020417;28;20308;-68
2022/04/10 16:12:33;;;;;;;0.97;0.70;;;;;;;;;;5013591;28;20221;-67
2022/04/10 16:15:22;;;;;;;0.80;0.80;;;;;;;;;;5024287;28;20205;-67
2022/04/10 16:18:09;;;;;;;0.60;0.60;;;;;;;;;;5018759;28;20211;-67
2022/04/10 16:20:56;;;;;;;0.73;0.53;;;;;;;;;;5022878;28;20820;-67
2022/04/10 16:23:43;;;;;;;1.40;0.87;;;;;;;;;;5017548;28;20291;-66
2022/04/10 16:26:29;;;;;;;1.00;0.70;;;;;;;;;;5018382;28;20316;-66
2022/04/10 16:32:22;;;;;;;1.23;0.83;;;;;;;;;;5022639;28;20630;-66
2022/04/10 16:35:13;;;;;;;0.97;0.87;;;;;;;;;;5015125;28;20602;-66
2022/04/10 16:38:01;;;;;;;0.80;0.77;;;;;;;;;;5021142;28;20212;-66
2022/04/10 16:40:47;;;;;;;2.07;0.83;;;;;;;;;;5018319;28;20804;-67
2022/04/10 16:43:34;;;;;;;1.03;0.93;;;;;;;;;;5021092;28;20677;-67
2022/04/10 16:46:22;;;;;;;1.50;0.70;;;;;;;;;;5020791;28;20292;-66
2022/04/10 16:49:11;;;;;;;0.80;0.80;;;;;;;;;;5024408;28;20650;-66
2022/04/10 16:51:58;;;;;;;0.50;0.50;;;;;;;;;;5008469;28;20260;-66
2022/04/10 16:54:49;;;;;;;1.77;1.00;;;;;;;;;;4999576;28;20295;-66
2022/04/10 16:57:37;;;;;;;1.20;1.10;;;;;;;;;;4999836;28;20289;-66
2022/04/10 17:00:25;;;;;;;1.80;1.03;;;;;;;;;;5003731;28;20699;-67
2022/04/10 17:03:13;;;;;;;0.90;0.90;;;;;;;;;;4998808;28;20221;-67
2022/04/10 17:06:01;;;;;;;1.67;1.03;;;;;;;;;;5001587;28;20224;-67